createdAt,value
2023-03-28T00:02:14.884Z,17.30
2023-03-28T00:04:43.154Z,17.30
2023-03-28T00:07:11.949Z,17.20
2023-03-28T00:09:40.268Z,17.20
2023-03-28T00:12:08.722Z,17.20
2023-03-28T00:14:38.065Z,17.20
2023-03-28T00:17:08.681Z,17.10
2023-03-28T00:19:40.828Z,17.10
2023-03-28T00:22:11.458Z,17.10
2023-03-28T00:24:40.073Z,17.10
2023-03-28T00:27:08.509Z,17.10
2023-03-28T00:29:36.841Z,17.10
2023-03-28T00:32:06.033Z,17.10
2023-03-28T00:34:35.651Z,17.00
2023-03-28T00:37:04.750Z,17.00
2023-03-28T00:39:33.347Z,17.00
2023-03-28T00:42:03.508Z,17.00
2023-03-28T00:44:51.926Z,17.00
2023-03-28T00:47:38.931Z,16.90
2023-03-28T00:50:12.812Z,16.90
2023-03-28T00:52:45.049Z,16.90
2023-03-28T00:55:19.570Z,16.90
2023-03-28T00:57:50.310Z,16.90
2023-03-28T01:00:21.146Z,16.80
2023-03-28T01:02:52.564Z,16.80
2023-03-28T01:05:27.625Z,16.80
2023-03-28T01:08:02.838Z,16.80
2023-03-28T01:10:33.519Z,16.80
2023-03-28T01:13:03.892Z,16.80
2023-03-28T01:15:33.812Z,16.80
2023-03-28T01:18:03.271Z,16.70
2023-03-28T01:20:59.196Z,16.70
2023-03-28T01:23:47.879Z,16.70
2023-03-28T01:26:40.778Z,16.70
2023-03-28T01:29:39.978Z,16.70
2023-03-28T01:32:40.160Z,16.70
2023-03-28T01:35:34.701Z,16.70
2023-03-28T01:38:10.199Z,16.60
2023-03-28T01:40:45.147Z,16.60
2023-03-28T01:43:30.431Z,16.50
2023-03-28T01:46:05.850Z,16.50
2023-03-28T01:48:43.052Z,16.40
2023-03-28T01:51:22.171Z,16.40
2023-03-28T01:53:59.073Z,16.40
2023-03-28T01:56:34.591Z,16.40
2023-03-28T01:59:10.689Z,16.40
2023-03-28T02:01:49.604Z,16.40
2023-03-28T02:04:21.394Z,16.40
2023-03-28T02:06:52.784Z,16.40
2023-03-28T02:09:26.474Z,16.30
2023-03-28T02:11:59.606Z,16.30
2023-03-28T02:14:31.274Z,16.30
2023-03-28T02:17:06.523Z,16.30
2023-03-28T02:19:37.955Z,16.30
2023-03-28T02:22:16.559Z,16.30
2023-03-28T02:24:50.702Z,16.20
2023-03-28T02:27:21.175Z,16.20
2023-03-28T02:29:50.631Z,16.20
2023-03-28T02:32:21.953Z,16.20
2023-03-28T02:34:53.927Z,16.10
2023-03-28T02:37:33.004Z,16.10
2023-03-28T02:40:11.997Z,16.10
2023-03-28T02:43:05.763Z,16.10
2023-03-28T02:45:50.751Z,16.10
2023-03-28T02:48:33.833Z,16.10
2023-03-28T02:51:11.675Z,16.00
2023-03-28T02:53:47.011Z,16.10
2023-03-28T02:56:21.901Z,16.00
2023-03-28T02:58:55.051Z,16.00
2023-03-28T03:01:25.588Z,16.00
2023-03-28T03:03:55.429Z,16.00
2023-03-28T03:06:25.005Z,16.00
2023-03-28T03:08:53.294Z,15.90
2023-03-28T03:11:22.945Z,15.90
2023-03-28T03:13:51.219Z,15.90
2023-03-28T03:16:19.806Z,15.90
2023-03-28T03:18:48.626Z,15.80
2023-03-28T03:21:18.485Z,15.80
2023-03-28T03:23:46.968Z,15.80
2023-03-28T03:26:15.490Z,15.80
2023-03-28T03:28:46.057Z,15.80
2023-03-28T03:31:14.801Z,15.70
2023-03-28T03:33:43.310Z,15.70
2023-03-28T03:36:13.920Z,15.70
2023-03-28T03:38:42.443Z,15.70
2023-03-28T03:41:11.802Z,15.60
2023-03-28T03:43:40.105Z,15.60
2023-03-28T03:46:09.968Z,15.60
2023-03-28T03:48:38.385Z,15.50
2023-03-28T03:51:18.128Z,15.50
2023-03-28T03:53:46.863Z,15.50
2023-03-28T03:56:15.323Z,15.50
2023-03-28T03:58:43.895Z,15.40
2023-03-28T04:01:14.112Z,15.40
2023-03-28T04:03:42.563Z,15.40
2023-03-28T04:06:12.042Z,15.40
2023-03-28T04:08:40.344Z,15.40
2023-03-28T04:11:10.576Z,15.40
2023-03-28T04:13:39.021Z,15.30
2023-03-28T04:16:08.309Z,15.30
2023-03-28T04:18:37.962Z,15.30
2023-03-28T04:21:09.754Z,15.40
2023-03-28T04:23:43.812Z,15.30
2023-03-28T04:26:25.841Z,15.30
2023-03-28T04:28:55.001Z,15.30
2023-03-28T04:31:29.686Z,15.30
2023-03-28T04:34:00.560Z,15.20
2023-03-28T04:36:29.283Z,15.10
2023-03-28T04:38:58.503Z,15.10
2023-03-28T04:41:27.050Z,15.10
2023-03-28T04:43:55.307Z,15.00
2023-03-28T04:46:23.957Z,15.00
2023-03-28T04:48:56.281Z,15.00
2023-03-28T04:51:28.715Z,14.90
2023-03-28T04:53:57.052Z,14.80
2023-03-28T04:56:25.356Z,14.80
2023-03-28T04:58:53.708Z,14.80
2023-03-28T05:01:22.657Z,14.70
2023-03-28T05:03:51.039Z,14.70
2023-03-28T05:06:19.375Z,14.70
2023-03-28T05:08:49.087Z,14.60
2023-03-28T05:11:17.398Z,14.60
2023-03-28T05:13:45.888Z,14.60
2023-03-28T05:16:14.312Z,14.60
2023-03-28T05:18:42.656Z,14.50
2023-03-28T05:21:10.927Z,14.50
2023-03-28T05:23:39.187Z,14.50
2023-03-28T05:26:09.233Z,14.50
2023-03-28T05:28:37.443Z,14.50
2023-03-28T05:31:07.623Z,14.50
2023-03-28T05:33:36.156Z,14.50
2023-03-28T05:36:04.681Z,14.40
2023-03-28T05:38:33.756Z,14.40
2023-03-28T05:41:03.140Z,14.40
2023-03-28T05:43:33.009Z,14.40
2023-03-28T05:46:01.653Z,14.40
2023-03-28T05:48:29.918Z,14.40
2023-03-28T05:50:58.392Z,14.40
2023-03-28T05:53:26.887Z,14.40
2023-03-28T05:55:55.137Z,14.40
2023-03-28T05:58:23.453Z,14.30
2023-03-28T06:00:53.124Z,14.40
2023-03-28T06:03:22.432Z,14.30
2023-03-28T06:05:50.929Z,14.30
2023-03-28T06:08:19.175Z,14.30
2023-03-28T06:10:48.590Z,14.30
2023-03-28T06:13:16.856Z,14.30
2023-03-28T06:15:45.091Z,14.30
2023-03-28T06:18:14.903Z,14.30
2023-03-28T06:20:43.648Z,14.30
2023-03-28T06:23:11.902Z,14.20
2023-03-28T06:25:40.179Z,14.30
2023-03-28T06:28:08.483Z,14.20
2023-03-28T06:30:36.814Z,14.20
2023-03-28T06:33:05.289Z,14.30
2023-03-28T06:35:35.248Z,14.20
2023-03-28T06:38:03.685Z,14.20
2023-03-28T06:40:32.007Z,14.20
2023-03-28T06:43:00.555Z,14.30
2023-03-28T06:45:29.510Z,14.20
2023-03-28T06:47:57.806Z,14.20
2023-03-28T06:50:26.177Z,14.20
2023-03-28T06:52:56.180Z,14.30
2023-03-28T06:55:24.751Z,14.30
2023-03-28T06:57:53.046Z,14.30
2023-03-28T07:00:22.269Z,14.30
2023-03-28T07:02:50.836Z,14.40
2023-03-28T07:05:19.587Z,14.40
2023-03-28T07:07:47.923Z,14.50
2023-03-28T07:10:17.948Z,14.60
2023-03-28T07:12:46.474Z,14.60
2023-03-28T07:15:15.268Z,14.60
2023-03-28T07:17:44.022Z,14.60
2023-03-28T07:20:12.784Z,14.70
2023-03-28T07:22:41.026Z,14.80
2023-03-28T07:25:09.934Z,14.80
2023-03-28T07:27:39.953Z,14.90
2023-03-28T07:30:09.470Z,14.90
2023-03-28T07:32:47.866Z,14.90
2023-03-28T07:35:21.214Z,15.00
2023-03-28T07:37:49.576Z,15.00
2023-03-28T07:40:18.225Z,15.00
2023-03-28T07:42:49.975Z,15.00
2023-03-28T07:45:18.407Z,15.10
2023-03-28T07:47:46.749Z,15.20
2023-03-28T07:50:15.912Z,15.20
2023-03-28T07:52:45.825Z,15.20
2023-03-28T07:55:14.295Z,15.30
2023-03-28T07:57:42.816Z,15.30
2023-03-28T08:00:14.281Z,15.30
2023-03-28T08:02:44.991Z,15.40
2023-03-28T08:05:13.629Z,15.40
2023-03-28T08:07:46.068Z,15.50
2023-03-28T08:10:15.138Z,15.50
2023-03-28T08:12:43.961Z,15.50
2023-03-28T08:15:14.148Z,15.50
2023-03-28T08:17:43.109Z,15.50
2023-03-28T08:20:12.765Z,15.60
2023-03-28T08:22:41.377Z,15.60
2023-03-28T08:25:10.848Z,15.60
2023-03-28T08:27:39.202Z,15.60
2023-03-28T08:30:09.525Z,15.60
2023-03-28T08:32:39.263Z,15.70
2023-03-28T08:35:11.014Z,15.60
2023-03-28T08:37:40.275Z,15.70
2023-03-28T08:40:16.330Z,15.70
2023-03-28T08:43:03.925Z,15.70
2023-03-28T08:45:51.533Z,15.70
2023-03-28T08:48:28.396Z,15.70
2023-03-28T08:51:01.321Z,15.70
2023-03-28T08:53:35.177Z,15.80
2023-03-28T08:56:06.312Z,15.80
2023-03-28T08:58:42.777Z,15.80
2023-03-28T09:01:11.836Z,15.80
2023-03-28T09:03:41.698Z,15.80
2023-03-28T09:06:26.232Z,15.90
2023-03-28T09:09:04.947Z,15.90
2023-03-28T09:11:44.541Z,16.00
2023-03-28T09:14:42.958Z,16.00
2023-03-28T09:17:17.863Z,16.00
2023-03-28T09:20:12.389Z,16.00
2023-03-28T09:22:52.782Z,16.00
2023-03-28T09:25:38.544Z,16.10
2023-03-28T09:28:17.455Z,16.10
2023-03-28T09:30:48.373Z,16.20
2023-03-28T09:33:22.045Z,16.20
2023-03-28T09:35:54.202Z,16.20
2023-03-28T09:38:25.516Z,16.20
2023-03-28T09:40:57.209Z,16.30
2023-03-28T09:43:31.709Z,16.20
2023-03-28T09:46:03.346Z,16.30
2023-03-28T09:48:33.863Z,16.40
2023-03-28T09:51:04.726Z,16.30
2023-03-28T09:53:34.632Z,16.40
2023-03-28T09:56:07.769Z,16.40
2023-03-28T09:58:50.918Z,16.40
2023-03-28T10:01:35.291Z,16.50
2023-03-28T10:04:03.852Z,16.50
2023-03-28T10:06:33.830Z,16.50
2023-03-28T10:09:21.211Z,16.60
2023-03-28T10:11:52.258Z,16.60
2023-03-28T10:14:34.663Z,16.70
2023-03-28T10:17:06.813Z,16.70
2023-03-28T10:19:38.526Z,16.70
2023-03-28T10:22:12.273Z,16.70
2023-03-28T10:24:41.444Z,16.70
2023-03-28T10:27:17.312Z,16.80
2023-03-28T10:29:47.470Z,16.80
2023-03-28T10:32:26.207Z,16.90
2023-03-28T10:35:02.984Z,17.00
2023-03-28T10:37:34.337Z,17.10
2023-03-28T10:40:06.954Z,17.10
2023-03-28T10:42:45.317Z,17.10
2023-03-28T10:45:23.984Z,17.20
2023-03-28T10:47:55.739Z,17.30
2023-03-28T10:50:30.705Z,17.30
2023-03-28T10:53:21.202Z,17.40
2023-03-28T10:56:02.112Z,17.50
2023-03-28T10:58:37.145Z,17.60
2023-03-28T11:01:11.176Z,17.70
2023-03-28T11:03:55.669Z,17.80
2023-03-28T11:06:31.006Z,17.90
2023-03-28T11:09:08.506Z,18.00
2023-03-28T11:11:51.113Z,18.10
2023-03-28T11:14:35.211Z,18.30
2023-03-28T11:17:09.659Z,18.50
2023-03-28T11:19:52.381Z,18.70
2023-03-28T11:22:30.994Z,18.90
2023-03-28T11:25:12.531Z,19.10
2023-03-28T11:27:47.148Z,19.30
2023-03-28T11:30:18.916Z,19.50
2023-03-28T11:32:51.798Z,19.70
2023-03-28T11:35:27.527Z,19.80
2023-03-28T11:38:02.466Z,20.00
2023-03-28T11:40:37.475Z,20.20
2023-03-28T11:43:07.551Z,20.30
2023-03-28T11:45:50.973Z,20.50
2023-03-28T11:48:26.842Z,20.70
2023-03-28T11:51:03.686Z,21.00
2023-03-28T11:53:34.714Z,21.30
2023-03-28T11:56:12.479Z,21.60
2023-03-28T11:58:45.607Z,21.90
2023-03-28T12:01:19.242Z,22.30
2023-03-28T12:03:59.718Z,22.70
2023-03-28T12:06:34.095Z,23.00
2023-03-28T12:09:12.576Z,23.40
2023-03-28T12:11:48.914Z,23.60
2023-03-28T12:14:36.372Z,23.80
2023-03-28T12:17:15.102Z,24.20
2023-03-28T12:19:44.058Z,24.50
2023-03-28T12:22:21.400Z,24.90
2023-03-28T12:24:54.114Z,25.30
2023-03-28T12:27:32.013Z,25.50
2023-03-28T12:30:07.647Z,25.60
2023-03-28T12:32:45.428Z,25.80
2023-03-28T12:35:19.679Z,25.90
2023-03-28T12:38:06.808Z,26.00
2023-03-28T12:40:51.219Z,26.30
2023-03-28T12:43:26.144Z,26.50
2023-03-28T12:45:57.687Z,26.80
2023-03-28T12:48:34.301Z,27.00
2023-03-28T12:51:14.156Z,27.30
2023-03-28T12:53:47.337Z,27.50
2023-03-28T12:56:17.191Z,27.80
2023-03-28T12:58:48.954Z,28.10
2023-03-28T13:01:36.305Z,28.40
2023-03-28T13:04:14.630Z,28.70
2023-03-28T13:06:49.129Z,28.90
2023-03-28T13:09:46.506Z,29.30
2023-03-28T13:12:42.314Z,29.50
2023-03-28T13:15:32.440Z,29.70
2023-03-28T13:18:26.286Z,29.80
2023-03-28T13:20:55.007Z,29.90
2023-03-28T13:23:30.223Z,30.00
2023-03-28T13:26:00.126Z,30.10
2023-03-28T13:28:40.725Z,30.20
2023-03-28T13:31:13.327Z,30.40
2023-03-28T13:33:47.499Z,30.60
2023-03-28T13:36:25.084Z,30.90
2023-03-28T13:39:10.920Z,31.10
2023-03-28T13:41:57.443Z,31.20
2023-03-28T13:44:32.226Z,31.40
2023-03-28T13:47:02.012Z,31.60
2023-03-28T13:49:40.063Z,31.80
2023-03-28T13:52:11.842Z,32.00
2023-03-28T13:54:40.172Z,32.00
2023-03-28T13:57:14.128Z,32.20
2023-03-28T13:59:53.281Z,32.30
2023-03-28T14:02:32.003Z,32.60
2023-03-28T14:05:13.965Z,32.70
2023-03-28T14:07:42.774Z,32.70
2023-03-28T14:10:29.560Z,32.60
2023-03-28T14:13:01.026Z,32.60
2023-03-28T14:15:31.948Z,32.70
2023-03-28T14:18:02.701Z,32.70
2023-03-28T14:20:31.826Z,32.60
2023-03-28T14:23:01.406Z,32.50
2023-03-28T14:25:30.845Z,32.40
2023-03-28T14:28:06.880Z,32.10
2023-03-28T14:30:40.566Z,31.80
2023-03-28T14:33:21.104Z,31.50
2023-03-28T14:35:58.609Z,31.30
2023-03-28T14:38:32.298Z,31.10
2023-03-28T14:41:15.277Z,30.60
2023-03-28T14:43:43.778Z,30.50
2023-03-28T14:46:12.562Z,30.50
2023-03-28T14:48:43.857Z,30.70
2023-03-28T14:51:15.060Z,30.90
2023-03-28T14:53:47.790Z,31.20
2023-03-28T14:56:19.823Z,30.90
2023-03-28T14:58:50.061Z,30.60
2023-03-28T15:01:23.192Z,30.20
2023-03-28T15:03:59.840Z,29.90
2023-03-28T15:06:29.617Z,29.70
2023-03-28T15:09:00.501Z,29.70
2023-03-28T15:11:32.642Z,29.90
2023-03-28T15:14:04.343Z,30.10
2023-03-28T15:16:36.769Z,30.10
2023-03-28T15:19:09.376Z,30.10
2023-03-28T15:21:39.599Z,30.00
2023-03-28T15:24:12.856Z,29.80
2023-03-28T15:26:45.587Z,29.70
2023-03-28T15:29:18.612Z,29.60
2023-03-28T15:31:47.974Z,29.30
2023-03-28T15:34:23.094Z,29.20
2023-03-28T15:36:54.574Z,28.90
2023-03-28T15:39:25.993Z,28.60
2023-03-28T15:41:56.628Z,28.40
2023-03-28T15:44:30.687Z,28.10
2023-03-28T15:47:02.217Z,27.90
2023-03-28T15:49:36.911Z,27.80
2023-03-28T15:52:09.384Z,27.60
2023-03-28T15:54:44.408Z,27.40
2023-03-28T15:57:15.799Z,27.20
2023-03-28T15:59:48.691Z,27.20
2023-03-28T16:02:32.826Z,27.10
2023-03-28T16:05:07.707Z,27.00
2023-03-28T16:07:37.463Z,26.80
2023-03-28T16:10:06.343Z,26.70
2023-03-28T16:12:35.247Z,26.50
2023-03-28T16:15:04.541Z,26.30
2023-03-28T16:17:33.340Z,26.20
2023-03-28T16:20:01.857Z,26.10
2023-03-28T16:22:31.442Z,25.90
2023-03-28T16:24:59.720Z,25.80
2023-03-28T16:27:28.002Z,25.60
2023-03-28T16:29:56.845Z,25.40
2023-03-28T16:32:25.116Z,25.20
2023-03-28T16:34:53.489Z,25.10
2023-03-28T16:37:21.900Z,24.90
2023-03-28T16:39:51.571Z,24.70
2023-03-28T16:42:20.842Z,24.70
2023-03-28T16:44:49.194Z,24.50
2023-03-28T16:47:17.484Z,24.40
2023-03-28T16:49:45.753Z,24.30
2023-03-28T16:52:14.214Z,24.10
2023-03-28T16:54:42.536Z,24.00
2023-03-28T16:57:12.307Z,23.90
2023-03-28T16:59:40.564Z,23.80
2023-03-28T17:02:09.163Z,23.60
2023-03-28T17:04:37.636Z,23.50
2023-03-28T17:07:06.262Z,23.40
2023-03-28T17:09:34.761Z,23.30
2023-03-28T17:12:02.978Z,23.20
2023-03-28T17:14:32.592Z,23.10
2023-03-28T17:17:00.908Z,23.00
2023-03-28T17:19:29.322Z,22.90
2023-03-28T17:21:57.922Z,22.80
2023-03-28T17:24:26.384Z,22.80
2023-03-28T17:26:54.947Z,22.80
2023-03-28T17:29:23.539Z,22.70
2023-03-28T17:31:54.013Z,22.60
2023-03-28T17:34:23.754Z,22.50
2023-03-28T17:36:54.197Z,22.40
2023-03-28T17:39:23.227Z,22.40
2023-03-28T17:41:51.595Z,22.20
2023-03-28T17:44:20.089Z,22.20
2023-03-28T17:46:48.447Z,22.10
2023-03-28T17:49:18.698Z,22.00
2023-03-28T17:51:47.388Z,21.90
2023-03-28T17:54:15.753Z,21.80
2023-03-28T17:56:44.683Z,21.80
2023-03-28T17:59:13.005Z,21.70
2023-03-28T18:01:41.606Z,21.60
2023-03-28T18:04:10.068Z,21.50
2023-03-28T18:06:40.501Z,21.40
2023-03-28T18:09:08.920Z,21.30
2023-03-28T18:11:39.612Z,21.20
2023-03-28T18:14:09.501Z,21.20
2023-03-28T18:16:38.867Z,21.10
2023-03-28T18:19:09.148Z,21.10
2023-03-28T18:21:38.270Z,21.00
2023-03-28T18:24:08.252Z,20.90
2023-03-28T18:26:36.514Z,20.80
2023-03-28T18:29:05.080Z,20.80
2023-03-28T18:31:34.830Z,20.70
2023-03-28T18:34:05.200Z,20.60
2023-03-28T18:36:33.956Z,20.60
2023-03-28T18:39:02.285Z,20.50
2023-03-28T18:41:31.906Z,20.40
2023-03-28T18:44:00.281Z,20.30
2023-03-28T18:46:29.918Z,20.30
2023-03-28T18:48:59.641Z,20.30
2023-03-28T18:51:28.810Z,20.20
2023-03-28T18:53:57.286Z,20.10
2023-03-28T18:56:25.824Z,20.10
2023-03-28T18:58:57.298Z,20.00
2023-03-28T19:01:25.568Z,20.00
2023-03-28T19:03:55.494Z,19.90
2023-03-28T19:06:23.890Z,19.90
2023-03-28T19:08:52.737Z,19.80
2023-03-28T19:11:21.377Z,19.70
2023-03-28T19:13:50.504Z,19.70
2023-03-28T19:16:20.294Z,19.60
2023-03-28T19:18:48.728Z,19.60
2023-03-28T19:21:17.838Z,19.50
2023-03-28T19:23:48.663Z,19.40
2023-03-28T19:26:18.340Z,19.40
2023-03-28T19:28:47.064Z,19.40
2023-03-28T19:31:15.837Z,19.30
2023-03-28T19:33:46.496Z,19.30
2023-03-28T19:36:14.994Z,19.30
2023-03-28T19:38:43.292Z,19.20
2023-03-28T19:41:18.219Z,19.20
2023-03-28T19:43:47.946Z,19.10
2023-03-28T19:46:20.461Z,19.10
2023-03-28T19:48:52.870Z,19.00
2023-03-28T19:51:21.308Z,19.00
2023-03-28T19:53:49.617Z,18.90
2023-03-28T19:56:19.721Z,18.90
2023-03-28T19:58:48.870Z,18.80
2023-03-28T20:01:17.458Z,18.80
2023-03-28T20:03:47.800Z,18.70
2023-03-28T20:06:18.251Z,18.70
2023-03-28T20:08:46.804Z,18.70
2023-03-28T20:11:17.007Z,18.60
2023-03-28T20:13:45.912Z,18.60
2023-03-28T20:16:15.021Z,18.50
2023-03-28T20:18:44.738Z,18.50
2023-03-28T20:21:15.007Z,18.40
2023-03-28T20:23:45.396Z,18.30
2023-03-28T20:26:16.910Z,18.30
2023-03-28T20:28:50.278Z,18.30
2023-03-28T20:31:19.860Z,18.30
2023-03-28T20:33:49.094Z,18.20
2023-03-28T20:36:17.801Z,18.20
2023-03-28T20:38:47.716Z,18.10
2023-03-28T20:41:17.857Z,18.10
2023-03-28T20:43:48.641Z,18.10
2023-03-28T20:46:20.273Z,18.00
2023-03-28T20:48:53.532Z,18.00
2023-03-28T20:51:24.229Z,17.90
2023-03-28T20:53:58.689Z,18.00
2023-03-28T20:56:29.376Z,17.90
2023-03-28T20:58:59.642Z,17.90
2023-03-28T21:01:32.855Z,17.80
2023-03-28T21:04:01.811Z,17.80
2023-03-28T21:06:33.651Z,17.80
2023-03-28T21:09:06.318Z,17.70
2023-03-28T21:11:37.365Z,17.70
2023-03-28T21:14:08.948Z,17.70
2023-03-28T21:16:37.856Z,17.60
2023-03-28T21:19:06.872Z,17.60
2023-03-28T21:21:35.243Z,17.50
2023-03-28T21:24:07.449Z,17.50
2023-03-28T21:26:36.066Z,17.40
2023-03-28T21:29:04.906Z,17.40
2023-03-28T21:31:33.710Z,17.30
2023-03-28T21:34:02.633Z,17.30
2023-03-28T21:36:32.429Z,17.30
2023-03-28T21:39:01.150Z,17.30
2023-03-28T21:41:31.401Z,17.30
2023-03-28T21:43:59.981Z,17.20
2023-03-28T21:46:28.414Z,17.20
2023-03-28T21:48:56.752Z,17.20
2023-03-28T21:51:25.910Z,17.10
2023-03-28T21:53:54.222Z,17.10
2023-03-28T21:56:23.360Z,17.10
2023-03-28T21:58:53.002Z,17.10
2023-03-28T22:01:21.904Z,17.10
2023-03-28T22:03:50.491Z,17.00
2023-03-28T22:06:20.799Z,17.00
2023-03-28T22:08:52.404Z,16.90
2023-03-28T22:11:28.111Z,16.90
2023-03-28T22:14:02.535Z,16.90
2023-03-28T22:16:32.502Z,16.80
2023-03-28T22:19:01.031Z,16.80
2023-03-28T22:21:31.525Z,16.80
2023-03-28T22:24:00.403Z,16.70
2023-03-28T22:26:28.662Z,16.70
2023-03-28T22:28:59.612Z,16.70
2023-03-28T22:31:28.562Z,16.60
2023-03-28T22:33:57.715Z,16.60
2023-03-28T22:36:26.081Z,16.60
2023-03-28T22:38:55.564Z,16.50
2023-03-28T22:41:24.611Z,16.50
2023-03-28T22:43:52.975Z,16.50
2023-03-28T22:46:22.759Z,16.40
2023-03-28T22:48:54.351Z,16.40
2023-03-28T22:51:25.273Z,16.40
2023-03-28T22:53:54.197Z,16.30
2023-03-28T22:56:24.412Z,16.30
2023-03-28T22:58:53.994Z,16.30
2023-03-28T23:01:26.231Z,16.30
2023-03-28T23:03:54.648Z,16.20
2023-03-28T23:06:22.864Z,16.20
2023-03-28T23:08:51.196Z,16.20
2023-03-28T23:11:19.474Z,16.20
2023-03-28T23:13:47.792Z,16.10
2023-03-28T23:16:16.117Z,16.10
2023-03-28T23:18:45.898Z,16.10
2023-03-28T23:21:14.696Z,16.10
2023-03-28T23:23:43.174Z,16.00
2023-03-28T23:26:11.885Z,16.00
2023-03-28T23:28:40.170Z,16.00
2023-03-28T23:31:08.724Z,16.00
2023-03-28T23:33:37.250Z,15.90
2023-03-28T23:36:07.969Z,15.90
2023-03-28T23:38:36.647Z,15.90
2023-03-28T23:41:04.984Z,15.90
2023-03-28T23:43:33.391Z,15.80
2023-03-28T23:46:04.204Z,15.80
2023-03-28T23:48:33.065Z,15.80
2023-03-28T23:51:02.228Z,15.80
2023-03-28T23:53:32.133Z,15.80
2023-03-28T23:56:00.393Z,15.70
2023-03-28T23:58:28.687Z,15.70
